createdAt,value
2023-03-05T00:01:55.522Z,62.33
2023-03-05T00:04:23.574Z,62.47
2023-03-05T00:06:50.697Z,62.59
2023-03-05T00:09:17.648Z,62.62
2023-03-05T00:11:44.487Z,62.43
2023-03-05T00:14:11.680Z,62.71
2023-03-05T00:16:38.498Z,62.62
2023-03-05T00:19:05.487Z,62.72
2023-03-05T00:21:38.344Z,63.16
2023-03-05T00:24:10.528Z,63.03
2023-03-05T00:26:39.033Z,63.22
2023-03-05T00:29:06.499Z,62.86
2023-03-05T00:31:34.826Z,63.14
2023-03-05T00:34:04.519Z,63.09
2023-03-05T00:36:31.927Z,62.92
2023-03-05T00:38:59.013Z,63.07
2023-03-05T00:41:26.069Z,62.97
2023-03-05T00:43:52.754Z,63.04
2023-03-05T00:46:19.352Z,63.03
2023-03-05T00:48:45.924Z,63.10
2023-03-05T00:51:12.597Z,63.28
2023-03-05T00:53:39.356Z,63.28
2023-03-05T00:56:06.964Z,63.54
2023-03-05T00:58:33.606Z,63.46
2023-03-05T01:01:01.386Z,63.24
2023-03-05T01:03:28.429Z,63.28
2023-03-05T01:05:55.506Z,63.43
2023-03-05T01:08:21.977Z,63.16
2023-03-05T01:10:48.749Z,63.46
2023-03-05T01:13:15.350Z,63.38
2023-03-05T01:15:42.234Z,63.60
2023-03-05T01:18:09.201Z,63.68
2023-03-05T01:20:36.409Z,63.60
2023-03-05T01:23:02.983Z,63.36
2023-03-05T01:25:29.691Z,63.62
2023-03-05T01:27:56.427Z,63.91
2023-03-05T01:30:23.088Z,63.32
2023-03-05T01:32:49.689Z,63.68
2023-03-05T01:35:19.256Z,63.79
2023-03-05T01:37:45.873Z,63.74
2023-03-05T01:40:14.467Z,63.92
2023-03-05T01:42:47.038Z,64.11
2023-03-05T01:45:17.682Z,64.29
2023-03-05T01:47:45.286Z,63.81
2023-03-05T01:50:16.047Z,64.35
2023-03-05T01:52:49.275Z,64.37
2023-03-05T01:55:19.731Z,64.25
2023-03-05T01:57:52.001Z,64.04
2023-03-05T02:00:46.810Z,64.53
2023-03-05T02:03:14.361Z,64.24
2023-03-05T02:05:44.265Z,63.94
2023-03-05T02:08:13.566Z,64.22
2023-03-05T02:10:46.477Z,64.42
2023-03-05T02:13:18.661Z,64.46
2023-03-05T02:15:47.334Z,64.23
2023-03-05T02:18:13.944Z,64.27
2023-03-05T02:20:47.959Z,64.50
2023-03-05T02:23:15.107Z,64.29
2023-03-05T02:25:41.547Z,64.25
2023-03-05T02:28:17.195Z,64.83
2023-03-05T02:30:44.101Z,64.57
2023-03-05T02:33:10.655Z,64.38
2023-03-05T02:35:37.403Z,64.45
2023-03-05T02:38:03.919Z,64.59
2023-03-05T02:40:30.367Z,64.58
2023-03-05T02:42:56.947Z,64.20
2023-03-05T02:45:23.537Z,64.01
2023-03-05T02:47:50.012Z,64.32
2023-03-05T02:50:17.035Z,64.34
2023-03-05T02:52:43.586Z,64.20
2023-03-05T02:55:10.480Z,64.21
2023-03-05T02:57:37.095Z,64.57
2023-03-05T03:00:05.101Z,64.43
2023-03-05T03:02:31.784Z,64.50
2023-03-05T03:04:58.360Z,64.45
2023-03-05T03:07:24.798Z,64.72
2023-03-05T03:09:51.337Z,64.54
2023-03-05T03:12:17.716Z,64.43
2023-03-05T03:14:44.617Z,64.38
2023-03-05T03:17:13.832Z,64.43
2023-03-05T03:19:41.070Z,64.58
2023-03-05T03:22:09.416Z,64.57
2023-03-05T03:24:37.255Z,65.03
2023-03-05T03:27:04.093Z,64.84
2023-03-05T03:29:31.180Z,64.98
2023-03-05T03:31:57.848Z,64.94
2023-03-05T03:34:24.506Z,65.04
2023-03-05T03:36:52.838Z,65.00
2023-03-05T03:39:19.889Z,64.96
2023-03-05T03:41:49.585Z,64.78
2023-03-05T03:44:17.966Z,64.73
2023-03-05T03:46:48.750Z,65.01
2023-03-05T03:49:21.525Z,65.60
2023-03-05T03:51:48.739Z,65.01
2023-03-05T03:54:16.652Z,65.07
2023-03-05T03:56:43.519Z,65.40
2023-03-05T03:59:10.357Z,65.32
2023-03-05T04:01:36.977Z,65.37
2023-03-05T04:04:04.282Z,65.26
2023-03-05T04:06:31.017Z,65.40
2023-03-05T04:08:57.450Z,65.16
2023-03-05T04:11:23.937Z,65.24
2023-03-05T04:13:51.213Z,65.48
2023-03-05T04:16:19.361Z,65.63
2023-03-05T04:18:45.939Z,65.32
2023-03-05T04:21:12.533Z,65.41
2023-03-05T04:23:39.473Z,65.49
2023-03-05T04:26:06.437Z,65.37
2023-03-05T04:28:33.282Z,65.63
2023-03-05T04:30:59.744Z,65.93
2023-03-05T04:33:26.250Z,65.39
2023-03-05T04:35:53.068Z,65.48
2023-03-05T04:38:19.527Z,65.47
2023-03-05T04:40:46.732Z,65.36
2023-03-05T04:43:13.410Z,65.58
2023-03-05T04:45:41.695Z,65.70
2023-03-05T04:48:09.162Z,65.65
2023-03-05T04:50:35.574Z,65.40
2023-03-05T04:53:02.829Z,65.67
2023-03-05T04:55:29.301Z,65.81
2023-03-05T04:57:55.886Z,65.74
2023-03-05T05:00:22.964Z,65.71
2023-03-05T05:02:51.556Z,66.14
2023-03-05T05:05:21.280Z,65.93
2023-03-05T05:07:47.761Z,65.80
2023-03-05T05:10:15.198Z,66.16
2023-03-05T05:12:42.186Z,66.28
2023-03-05T05:15:09.844Z,66.25
2023-03-05T05:17:36.632Z,66.02
2023-03-05T05:20:06.598Z,66.29
2023-03-05T05:22:34.010Z,66.14
2023-03-05T05:25:00.819Z,66.14
2023-03-05T05:27:27.251Z,66.18
2023-03-05T05:29:53.692Z,66.01
2023-03-05T05:32:22.423Z,66.17
2023-03-05T05:34:49.079Z,66.17
2023-03-05T05:37:15.501Z,66.18
2023-03-05T05:39:41.943Z,66.26
2023-03-05T05:42:08.454Z,66.45
2023-03-05T05:44:34.904Z,66.13
2023-03-05T05:47:01.743Z,66.02
2023-03-05T05:49:28.257Z,66.15
2023-03-05T05:51:54.697Z,66.25
2023-03-05T05:54:21.113Z,66.37
2023-03-05T05:56:47.526Z,66.22
2023-03-05T05:59:13.904Z,66.12
2023-03-05T06:01:40.603Z,66.17
2023-03-05T06:04:07.062Z,65.93
2023-03-05T06:06:34.997Z,66.23
2023-03-05T06:09:01.835Z,66.26
2023-03-05T06:11:28.410Z,66.28
2023-03-05T06:13:54.845Z,66.21
2023-03-05T06:16:24.452Z,66.61
2023-03-05T06:18:52.203Z,66.57
2023-03-05T06:21:20.225Z,66.57
2023-03-05T06:23:47.691Z,66.38
2023-03-05T06:26:17.448Z,66.43
2023-03-05T06:28:44.136Z,66.47
2023-03-05T06:31:13.367Z,66.41
2023-03-05T06:33:41.205Z,66.21
2023-03-05T06:36:10.101Z,66.73
2023-03-05T06:38:37.317Z,66.55
2023-03-05T06:41:09.272Z,66.86
2023-03-05T06:43:38.446Z,66.64
2023-03-05T06:46:14.319Z,66.77
2023-03-05T06:48:40.861Z,66.51
2023-03-05T06:51:16.810Z,66.80
2023-03-05T06:53:44.158Z,66.30
2023-03-05T06:56:11.130Z,66.67
2023-03-05T06:58:37.523Z,66.70
2023-03-05T07:01:06.205Z,66.49
2023-03-05T07:03:36.356Z,66.54
2023-03-05T07:06:08.321Z,66.74
2023-03-05T07:08:35.166Z,66.71
2023-03-05T07:11:01.823Z,66.88
2023-03-05T07:13:28.922Z,66.56
2023-03-05T07:15:55.492Z,66.71
2023-03-05T07:18:21.908Z,66.71
2023-03-05T07:20:48.362Z,66.80
2023-03-05T07:23:14.799Z,66.76
2023-03-05T07:25:41.282Z,66.90
2023-03-05T07:28:09.421Z,66.50
2023-03-05T07:30:36.086Z,66.71
2023-03-05T07:33:02.708Z,66.69
2023-03-05T07:35:29.208Z,66.38
2023-03-05T07:37:55.928Z,66.69
2023-03-05T07:40:22.776Z,66.84
2023-03-05T07:42:49.196Z,66.75
2023-03-05T07:45:15.667Z,67.01
2023-03-05T07:47:42.073Z,66.59
2023-03-05T07:50:09.255Z,66.55
2023-03-05T07:52:35.642Z,66.47
2023-03-05T07:55:02.042Z,66.52
2023-03-05T07:57:35.458Z,66.68
2023-03-05T08:00:01.874Z,66.53
2023-03-05T08:02:28.370Z,66.80
2023-03-05T08:04:54.762Z,66.64
2023-03-05T08:07:21.199Z,66.42
2023-03-05T08:09:47.658Z,66.34
2023-03-05T08:12:14.104Z,66.29
2023-03-05T08:14:40.572Z,66.25
2023-03-05T08:17:07.158Z,66.73
2023-03-05T08:19:33.593Z,66.33
2023-03-05T08:22:00.115Z,66.31
2023-03-05T08:24:29.588Z,66.24
2023-03-05T08:26:59.447Z,66.58
2023-03-05T08:29:26.872Z,66.37
2023-03-05T08:31:54.014Z,66.50
2023-03-05T08:34:21.190Z,66.56
2023-03-05T08:36:47.874Z,66.45
2023-03-05T08:39:14.418Z,66.50
2023-03-05T08:41:41.028Z,66.70
2023-03-05T08:44:07.739Z,66.43
2023-03-05T08:46:34.617Z,66.37
2023-03-05T08:49:01.265Z,66.22
2023-03-05T08:51:27.911Z,66.24
2023-03-05T08:53:57.812Z,65.76
2023-03-05T08:56:26.187Z,65.61
2023-03-05T08:58:53.030Z,65.34
2023-03-05T09:01:19.971Z,65.68
2023-03-05T09:03:46.573Z,65.42
2023-03-05T09:06:13.111Z,65.49
2023-03-05T09:08:39.664Z,65.41
2023-03-05T09:11:10.360Z,65.08
2023-03-05T09:13:36.967Z,65.23
2023-03-05T09:16:06.662Z,65.25
2023-03-05T09:18:33.425Z,65.60
2023-03-05T09:21:04.915Z,64.81
2023-03-05T09:23:31.565Z,64.89
2023-03-05T09:25:58.148Z,64.58
2023-03-05T09:28:24.730Z,64.47
2023-03-05T09:30:51.277Z,64.49
2023-03-05T09:33:17.856Z,64.62
2023-03-05T09:35:44.602Z,64.48
2023-03-05T09:38:11.233Z,64.80
2023-03-05T09:40:48.980Z,63.36
2023-03-05T09:43:34.485Z,63.17
2023-03-05T09:46:15.955Z,63.36
2023-03-05T09:48:48.491Z,64.20
2023-03-05T09:51:25.225Z,64.04
2023-03-05T09:54:20.456Z,63.66
2023-03-05T09:56:51.088Z,64.18
2023-03-05T09:59:17.692Z,64.24
2023-03-05T10:01:45.102Z,63.82
2023-03-05T10:04:15.411Z,63.53
2023-03-05T10:07:24.220Z,61.82
2023-03-05T10:09:56.437Z,62.11
2023-03-05T10:12:42.404Z,60.98
2023-03-05T10:15:13.611Z,61.84
2023-03-05T10:17:48.902Z,62.42
2023-03-05T10:20:46.452Z,60.61
2023-03-05T10:23:29.365Z,60.39
2023-03-05T10:26:24.760Z,60.44
2023-03-05T10:28:57.056Z,61.62
2023-03-05T10:31:46.829Z,61.00
2023-03-05T10:34:48.864Z,60.17
2023-03-05T10:37:52.985Z,59.03
2023-03-05T10:40:43.853Z,58.59
2023-03-05T10:43:10.332Z,61.30
2023-03-05T10:45:41.638Z,59.94
2023-03-05T10:48:43.683Z,58.95
2023-03-05T10:51:44.093Z,59.16
2023-03-05T10:54:29.895Z,59.39
2023-03-05T10:57:18.203Z,58.02
2023-03-05T10:59:55.003Z,57.54
2023-03-05T11:02:23.043Z,58.88
2023-03-05T11:04:51.485Z,58.70
2023-03-05T11:07:18.252Z,58.62
2023-03-05T11:10:00.131Z,56.97
2023-03-05T11:12:28.583Z,57.69
2023-03-05T11:15:07.331Z,56.55
2023-03-05T11:17:47.872Z,57.26
2023-03-05T11:20:26.906Z,56.60
2023-03-05T11:23:38.375Z,55.66
2023-03-05T11:26:14.005Z,56.97
2023-03-05T11:28:42.170Z,58.76
2023-03-05T11:31:18.362Z,55.70
2023-03-05T11:34:17.157Z,54.08
2023-03-05T11:37:03.611Z,54.03
2023-03-05T11:39:34.036Z,56.07
2023-03-05T11:42:25.378Z,55.14
2023-03-05T11:44:56.937Z,56.17
2023-03-05T11:47:39.164Z,55.59
2023-03-05T11:50:31.280Z,55.01
2023-03-05T11:52:59.432Z,56.80
2023-03-05T11:55:45.190Z,57.32
2023-03-05T11:58:41.199Z,53.83
2023-03-05T12:01:42.071Z,54.10
2023-03-05T12:04:08.756Z,56.04
2023-03-05T12:06:50.236Z,54.01
2023-03-05T12:09:50.723Z,54.43
2023-03-05T12:12:38.484Z,54.36
2023-03-05T12:15:23.610Z,55.02
2023-03-05T12:18:38.358Z,52.63
2023-03-05T12:21:04.925Z,53.12
2023-03-05T12:23:46.480Z,51.43
2023-03-05T12:26:13.084Z,52.36
2023-03-05T12:28:42.946Z,51.56
2023-03-05T12:31:09.474Z,53.11
2023-03-05T12:33:44.145Z,52.42
2023-03-05T12:36:19.666Z,52.27
2023-03-05T12:38:52.043Z,54.36
2023-03-05T12:41:26.824Z,55.19
2023-03-05T12:44:06.942Z,52.47
2023-03-05T12:46:42.508Z,52.63
2023-03-05T12:49:18.190Z,52.41
2023-03-05T12:51:46.989Z,52.85
2023-03-05T12:54:30.207Z,51.13
2023-03-05T12:57:02.609Z,51.99
2023-03-05T12:59:50.058Z,51.25
2023-03-05T13:02:45.178Z,51.29
2023-03-05T13:05:23.252Z,50.32
2023-03-05T13:07:51.057Z,52.54
2023-03-05T13:10:35.820Z,50.36
2023-03-05T13:13:02.731Z,50.70
2023-03-05T13:15:30.248Z,49.87
2023-03-05T13:18:07.486Z,47.74
2023-03-05T13:20:37.655Z,49.40
2023-03-05T13:23:20.614Z,47.78
2023-03-05T13:25:59.357Z,48.37
2023-03-05T13:28:27.326Z,49.55
2023-03-05T13:31:02.312Z,48.49
2023-03-05T13:33:35.193Z,47.98
2023-03-05T13:36:02.853Z,49.65
2023-03-05T13:38:35.673Z,48.72
2023-03-05T13:41:08.784Z,49.39
2023-03-05T13:43:42.070Z,50.57
2023-03-05T13:46:08.641Z,50.88
2023-03-05T13:48:35.140Z,50.78
2023-03-05T13:51:06.781Z,51.07
2023-03-05T13:53:33.839Z,51.36
2023-03-05T13:56:04.123Z,50.78
2023-03-05T13:58:59.854Z,50.20
2023-03-05T14:01:43.726Z,50.45
2023-03-05T14:04:12.946Z,51.10
2023-03-05T14:06:59.530Z,50.74
2023-03-05T14:09:38.308Z,50.86
2023-03-05T14:12:21.686Z,51.44
2023-03-05T14:14:49.789Z,51.72
2023-03-05T14:17:32.321Z,50.81
2023-03-05T14:20:09.707Z,50.66
2023-03-05T14:22:39.105Z,51.22
2023-03-05T14:25:07.763Z,51.44
2023-03-05T14:27:36.297Z,51.34
2023-03-05T14:30:04.974Z,51.61
2023-03-05T14:32:36.905Z,51.54
2023-03-05T14:35:05.892Z,52.26
2023-03-05T14:37:38.970Z,51.31
2023-03-05T14:40:05.454Z,52.02
2023-03-05T14:42:35.247Z,51.71
2023-03-05T14:45:19.796Z,50.11
2023-03-05T14:47:46.526Z,51.59
2023-03-05T14:50:17.163Z,50.63
2023-03-05T14:52:44.920Z,51.21
2023-03-05T14:55:22.993Z,49.66
2023-03-05T14:57:51.529Z,51.30
2023-03-05T15:00:23.859Z,50.16
2023-03-05T18:31:45.576Z,57.75
2023-03-05T18:34:12.070Z,58.05
2023-03-05T18:36:39.266Z,57.94
2023-03-05T18:39:05.859Z,58.56
2023-03-05T18:41:35.342Z,58.44
2023-03-05T18:44:01.859Z,58.27
2023-03-05T18:46:28.484Z,58.44
2023-03-05T18:48:55.172Z,58.56
2023-03-05T18:51:29.691Z,58.40
2023-03-05T18:53:57.398Z,58.35
2023-03-05T18:56:24.739Z,58.59
2023-03-05T18:58:51.543Z,58.30
2023-03-05T19:01:19.255Z,58.58
2023-03-05T19:03:46.923Z,58.29
2023-03-05T19:06:13.700Z,58.08
2023-03-05T19:08:41.085Z,58.36
2023-03-05T19:11:16.856Z,58.58
2023-03-05T19:13:49.004Z,58.43
2023-03-05T19:16:29.230Z,58.14
2023-03-05T19:19:15.905Z,58.29
2023-03-05T19:21:44.932Z,58.20
2023-03-05T19:24:11.579Z,58.20
2023-03-05T19:26:39.469Z,58.34
2023-03-05T19:29:07.473Z,58.53
2023-03-05T19:31:34.788Z,58.46
2023-03-05T19:36:28.457Z,58.51
2023-03-05T19:38:55.308Z,58.65
2023-03-05T19:41:22.375Z,58.67
2023-03-05T19:43:50.114Z,58.50
2023-03-05T19:46:17.521Z,58.85
2023-03-05T19:48:45.020Z,58.54
2023-03-05T19:51:14.130Z,58.75
2023-03-05T19:53:41.750Z,58.74
2023-03-05T19:56:10.055Z,58.79
2023-03-05T19:58:37.328Z,58.67
2023-03-05T20:01:21.827Z,58.82
2023-03-05T20:03:51.292Z,58.59
2023-03-05T20:06:18.068Z,58.78
2023-03-05T20:08:44.693Z,58.42
2023-03-05T20:11:13.308Z,58.61
2023-03-05T20:13:40.710Z,58.39
2023-03-05T20:16:25.302Z,58.99
2023-03-05T20:18:54.869Z,59.00
2023-03-05T20:21:33.130Z,58.94
2023-03-05T20:24:03.960Z,59.04
2023-03-05T20:26:30.719Z,58.73
2023-03-05T20:28:57.671Z,59.14
2023-03-05T20:31:26.427Z,59.17
2023-03-05T20:33:53.099Z,58.95
2023-03-05T20:36:19.872Z,59.36
2023-03-05T20:38:46.529Z,59.12
2023-03-05T20:41:16.527Z,59.34
2023-03-05T20:43:50.940Z,59.63
2023-03-05T20:46:26.212Z,59.43
2023-03-05T20:48:56.540Z,59.55
2023-03-05T20:51:30.586Z,59.65
2023-03-05T20:54:07.158Z,59.74
2023-03-05T20:56:35.499Z,59.62
2023-03-05T20:59:04.963Z,59.42
2023-03-05T21:01:33.957Z,59.47
2023-03-05T21:04:01.396Z,59.49
2023-03-05T21:06:30.053Z,59.69
2023-03-05T21:08:57.167Z,59.63
2023-03-05T21:11:24.188Z,59.47
2023-03-05T21:13:51.032Z,59.49
2023-03-05T21:16:20.823Z,59.59
2023-03-05T21:18:47.990Z,59.32
2023-03-05T21:21:14.608Z,59.60
2023-03-05T21:23:41.166Z,59.55
2023-03-05T21:26:07.819Z,59.65
2023-03-05T21:28:34.737Z,59.61
2023-03-05T21:31:08.306Z,59.18
2023-03-05T21:33:34.929Z,59.17
2023-03-05T21:36:01.584Z,59.48
2023-03-05T21:38:30.502Z,59.47
2023-03-05T21:40:58.431Z,59.54
2023-03-05T21:43:25.972Z,59.34
2023-03-05T21:45:54.128Z,59.40
2023-03-05T21:48:21.878Z,59.25
2023-03-05T21:50:49.122Z,59.23
2023-03-05T21:53:16.887Z,59.12
2023-03-05T21:56:07.836Z,59.19
2023-03-05T21:58:34.942Z,58.95
2023-03-05T22:01:02.133Z,58.93
2023-03-05T22:03:29.643Z,59.15
2023-03-05T22:05:57.167Z,59.13
2023-03-05T22:08:24.426Z,58.89
2023-03-05T22:10:50.991Z,58.91
2023-03-05T22:13:19.990Z,59.18
2023-03-05T22:15:52.385Z,59.15
2023-03-05T22:18:22.017Z,59.51
2023-03-05T22:20:49.059Z,59.56
2023-03-05T22:23:16.654Z,59.15
2023-03-05T22:25:43.960Z,59.64
2023-03-05T22:28:12.580Z,59.29
2023-03-05T22:30:45.907Z,59.24
2023-03-05T22:33:12.872Z,59.27
2023-03-05T22:35:41.062Z,59.28
2023-03-05T22:38:09.433Z,59.08
2023-03-05T22:40:37.652Z,59.10
2023-03-05T22:43:04.553Z,59.37
2023-03-05T22:45:31.352Z,59.36
2023-03-05T22:47:58.080Z,59.24
2023-03-05T22:50:24.687Z,59.43
2023-03-05T22:52:54.239Z,59.02
2023-03-05T22:55:21.424Z,59.09
2023-03-05T22:57:48.289Z,59.34
2023-03-05T23:00:18.624Z,59.14
2023-03-05T23:02:45.239Z,59.38
2023-03-05T23:05:12.080Z,59.15
2023-03-05T23:07:40.789Z,59.05
2023-03-05T23:10:14.962Z,59.23
2023-03-05T23:12:46.178Z,58.88
2023-03-05T23:15:16.006Z,58.97
2023-03-05T23:17:43.452Z,59.11
2023-03-05T23:20:11.631Z,59.16
2023-03-05T23:22:40.248Z,59.21
2023-03-05T23:25:07.174Z,59.14
2023-03-05T23:27:33.709Z,59.20
2023-03-05T23:30:20.308Z,59.61
2023-03-05T23:33:05.883Z,59.42
2023-03-05T23:35:38.588Z,59.31
2023-03-05T23:38:08.036Z,59.49
2023-03-05T23:40:37.670Z,59.38
2023-03-05T23:43:04.469Z,59.58
2023-03-05T23:45:31.587Z,59.78
2023-03-05T23:47:58.611Z,59.51
2023-03-05T23:50:30.812Z,59.77
2023-03-05T23:53:01.340Z,59.67
2023-03-05T23:55:32.096Z,59.70
2023-03-05T23:57:59.120Z,59.83
